sensor_id;sensor_type;location;lat;lon;timestamp;P1;durP1;ratioP1;P2;durP2;ratioP2
36243;SDS011;22284;49.956;19.816;2022-12-11T00:01:17;33.70;;;16.10;;
36243;SDS011;22284;49.956;19.816;2022-12-11T00:04:19;46.03;;;26.17;;
36243;SDS011;22284;49.956;19.816;2022-12-11T00:07:20;40.03;;;16.53;;
36243;SDS011;22284;49.956;19.816;2022-12-11T00:10:21;33.53;;;15.70;;
36243;SDS011;22284;49.956;19.816;2022-12-11T00:13:22;34.73;;;16.53;;
36243;SDS011;22284;49.956;19.816;2022-12-11T00:16:23;34.10;;;16.27;;
36243;SDS011;22284;49.956;19.816;2022-12-11T00:19:24;34.53;;;16.00;;
36243;SDS011;22284;49.956;19.816;2022-12-11T00:22:25;36.13;;;15.13;;
36243;SDS011;22284;49.956;19.816;2022-12-11T00:25:25;36.63;;;18.17;;
36243;SDS011;22284;49.956;19.816;2022-12-11T00:28:27;30.70;;;14.13;;
36243;SDS011;22284;49.956;19.816;2022-12-11T00:31:28;31.23;;;13.90;;
36243;SDS011;22284;49.956;19.816;2022-12-11T00:34:29;33.47;;;15.00;;
36243;SDS011;22284;49.956;19.816;2022-12-11T00:37:30;29.37;;;13.30;;
36243;SDS011;22284;49.956;19.816;2022-12-11T00:40:35;33.33;;;15.47;;
36243;SDS011;22284;49.956;19.816;2022-12-11T00:43:36;30.93;;;13.20;;
36243;SDS011;22284;49.956;19.816;2022-12-11T00:46:37;32.50;;;13.27;;
36243;SDS011;22284;49.956;19.816;2022-12-11T00:49:38;45.67;;;20.73;;
36243;SDS011;22284;49.956;19.816;2022-12-11T00:52:39;29.63;;;13.97;;
36243;SDS011;22284;49.956;19.816;2022-12-11T00:55:41;30.30;;;13.30;;
36243;SDS011;22284;49.956;19.816;2022-12-11T00:58:43;51.37;;;25.83;;
36243;SDS011;22284;49.956;19.816;2022-12-11T01:01:46;29.63;;;13.98;;
36243;SDS011;22284;49.956;19.816;2022-12-11T01:04:47;31.27;;;13.57;;
36243;SDS011;22284;49.956;19.816;2022-12-11T01:07:48;30.90;;;14.07;;
36243;SDS011;22284;49.956;19.816;2022-12-11T01:10:49;42.47;;;19.97;;
36243;SDS011;22284;49.956;19.816;2022-12-11T01:13:50;33.63;;;13.43;;
36243;SDS011;22284;49.956;19.816;2022-12-11T01:16:51;30.47;;;13.80;;
36243;SDS011;22284;49.956;19.816;2022-12-11T01:19:55;28.03;;;12.63;;
36243;SDS011;22284;49.956;19.816;2022-12-11T01:22:57;26.57;;;12.93;;
36243;SDS011;22284;49.956;19.816;2022-12-11T01:26:07;30.67;;;14.03;;
36243;SDS011;22284;49.956;19.816;2022-12-11T01:29:09;25.77;;;12.53;;
36243;SDS011;22284;49.956;19.816;2022-12-11T01:32:10;26.57;;;12.03;;
36243;SDS011;22284;49.956;19.816;2022-12-11T01:35:11;27.40;;;12.50;;
36243;SDS011;22284;49.956;19.816;2022-12-11T01:38:13;27.90;;;12.80;;
36243;SDS011;22284;49.956;19.816;2022-12-11T01:41:15;25.47;;;12.03;;
36243;SDS011;22284;49.956;19.816;2022-12-11T01:47:24;25.37;;;11.20;;
36243;SDS011;22284;49.956;19.816;2022-12-11T01:50:25;28.17;;;13.07;;
36243;SDS011;22284;49.956;19.816;2022-12-11T01:53:30;26.55;;;12.05;;
36243;SDS011;22284;49.956;19.816;2022-12-11T01:56:35;29.83;;;13.93;;
36243;SDS011;22284;49.956;19.816;2022-12-11T01:59:40;29.57;;;14.10;;
36243;SDS011;22284;49.956;19.816;2022-12-11T02:02:45;27.50;;;12.63;;
36243;SDS011;22284;49.956;19.816;2022-12-11T02:05:46;27.87;;;12.67;;
36243;SDS011;22284;49.956;19.816;2022-12-11T02:08:47;26.43;;;12.23;;
36243;SDS011;22284;49.956;19.816;2022-12-11T02:15:16;27.23;;;12.97;;
36243;SDS011;22284;49.956;19.816;2022-12-11T02:21:41;25.07;;;12.27;;
36243;SDS011;22284;49.956;19.816;2022-12-11T02:24:58;32.40;;;15.73;;
36243;SDS011;22284;49.956;19.816;2022-12-11T02:28:11;27.33;;;12.27;;
36243;SDS011;22284;49.956;19.816;2022-12-11T02:31:34;37.80;;;17.07;;
36243;SDS011;22284;49.956;19.816;2022-12-11T02:34:41;33.87;;;14.70;;
36243;SDS011;22284;49.956;19.816;2022-12-11T02:37:46;37.67;;;16.43;;
36243;SDS011;22284;49.956;19.816;2022-12-11T02:40:51;32.03;;;13.77;;
36243;SDS011;22284;49.956;19.816;2022-12-11T02:43:55;27.07;;;12.23;;
36243;SDS011;22284;49.956;19.816;2022-12-11T02:46:59;25.15;;;12.40;;
36243;SDS011;22284;49.956;19.816;2022-12-11T02:50:02;26.23;;;11.47;;
36243;SDS011;22284;49.956;19.816;2022-12-11T02:53:10;57.47;;;23.33;;
36243;SDS011;22284;49.956;19.816;2022-12-11T02:56:17;86.90;;;32.70;;
36243;SDS011;22284;49.956;19.816;2022-12-11T02:59:30;26.03;;;12.03;;
36243;SDS011;22284;49.956;19.816;2022-12-11T03:02:31;22.90;;;10.17;;
36243;SDS011;22284;49.956;19.816;2022-12-11T03:05:32;24.37;;;10.43;;
36243;SDS011;22284;49.956;19.816;2022-12-11T03:08:33;22.73;;;10.93;;
36243;SDS011;22284;49.956;19.816;2022-12-11T03:11:34;21.67;;;10.50;;
36243;SDS011;22284;49.956;19.816;2022-12-11T03:14:35;21.33;;;9.80;;
36243;SDS011;22284;49.956;19.816;2022-12-11T03:21:09;27.57;;;12.30;;
36243;SDS011;22284;49.956;19.816;2022-12-11T03:24:27;23.83;;;10.33;;
36243;SDS011;22284;49.956;19.816;2022-12-11T03:27:57;25.67;;;12.37;;
36243;SDS011;22284;49.956;19.816;2022-12-11T03:31:06;22.90;;;10.73;;
36243;SDS011;22284;49.956;19.816;2022-12-11T03:34:16;22.40;;;9.67;;
36243;SDS011;22284;49.956;19.816;2022-12-11T03:37:20;24.60;;;10.80;;
36243;SDS011;22284;49.956;19.816;2022-12-11T03:40:23;21.50;;;10.32;;
36243;SDS011;22284;49.956;19.816;2022-12-11T03:43:27;20.82;;;9.65;;
36243;SDS011;22284;49.956;19.816;2022-12-11T03:46:32;21.63;;;9.83;;
36243;SDS011;22284;49.956;19.816;2022-12-11T03:49:38;22.67;;;10.37;;
36243;SDS011;22284;49.956;19.816;2022-12-11T03:52:42;34.03;;;15.83;;
36243;SDS011;22284;49.956;19.816;2022-12-11T03:55:45;24.07;;;10.80;;
36243;SDS011;22284;49.956;19.816;2022-12-11T03:58:48;23.05;;;10.15;;
36243;SDS011;22284;49.956;19.816;2022-12-11T04:01:49;21.43;;;9.90;;
36243;SDS011;22284;49.956;19.816;2022-12-11T04:04:51;23.07;;;10.87;;
36243;SDS011;22284;49.956;19.816;2022-12-11T04:07:52;23.13;;;9.90;;
36243;SDS011;22284;49.956;19.816;2022-12-11T04:10:53;28.83;;;13.70;;
36243;SDS011;22284;49.956;19.816;2022-12-11T04:14:13;26.50;;;12.17;;
36243;SDS011;22284;49.956;19.816;2022-12-11T04:17:33;27.37;;;14.13;;
36243;SDS011;22284;49.956;19.816;2022-12-11T04:20:56;23.30;;;11.18;;
36243;SDS011;22284;49.956;19.816;2022-12-11T04:24:15;24.97;;;12.23;;
36243;SDS011;22284;49.956;19.816;2022-12-11T04:27:16;28.83;;;19.00;;
36243;SDS011;22284;49.956;19.816;2022-12-11T04:30:21;26.67;;;14.90;;
36243;SDS011;22284;49.956;19.816;2022-12-11T04:33:24;49.10;;;22.23;;
36243;SDS011;22284;49.956;19.816;2022-12-11T04:36:25;47.70;;;19.43;;
36243;SDS011;22284;49.956;19.816;2022-12-11T04:39:26;72.50;;;31.53;;
36243;SDS011;22284;49.956;19.816;2022-12-11T04:42:26;30.50;;;13.30;;
36243;SDS011;22284;49.956;19.816;2022-12-11T04:45:27;28.30;;;12.30;;
36243;SDS011;22284;49.956;19.816;2022-12-11T04:48:28;21.97;;;10.13;;
36243;SDS011;22284;49.956;19.816;2022-12-11T04:51:30;20.93;;;10.80;;
36243;SDS011;22284;49.956;19.816;2022-12-11T04:54:31;21.57;;;10.47;;
36243;SDS011;22284;49.956;19.816;2022-12-11T04:57:32;17.43;;;8.57;;
36243;SDS011;22284;49.956;19.816;2022-12-11T05:00:33;34.43;;;14.53;;
36243;SDS011;22284;49.956;19.816;2022-12-11T05:03:34;19.73;;;8.73;;
36243;SDS011;22284;49.956;19.816;2022-12-11T05:06:36;17.30;;;7.70;;
36243;SDS011;22284;49.956;19.816;2022-12-11T05:09:37;15.80;;;7.90;;
36243;SDS011;22284;49.956;19.816;2022-12-11T05:12:38;17.47;;;8.40;;
36243;SDS011;22284;49.956;19.816;2022-12-11T05:15:38;21.13;;;12.07;;
36243;SDS011;22284;49.956;19.816;2022-12-11T05:18:39;23.63;;;13.43;;
36243;SDS011;22284;49.956;19.816;2022-12-11T05:21:41;38.20;;;17.43;;
36243;SDS011;22284;49.956;19.816;2022-12-11T05:24:42;45.40;;;19.27;;
36243;SDS011;22284;49.956;19.816;2022-12-11T05:27:44;42.50;;;16.87;;
36243;SDS011;22284;49.956;19.816;2022-12-11T05:30:45;29.70;;;12.10;;
36243;SDS011;22284;49.956;19.816;2022-12-11T05:33:46;32.67;;;14.03;;
36243;SDS011;22284;49.956;19.816;2022-12-11T05:36:49;33.05;;;14.05;;
36243;SDS011;22284;49.956;19.816;2022-12-11T05:39:50;30.63;;;14.57;;
36243;SDS011;22284;49.956;19.816;2022-12-11T05:42:51;27.47;;;13.57;;
36243;SDS011;22284;49.956;19.816;2022-12-11T05:45:52;29.53;;;14.17;;
36243;SDS011;22284;49.956;19.816;2022-12-11T05:48:54;19.87;;;8.80;;
36243;SDS011;22284;49.956;19.816;2022-12-11T05:51:59;20.20;;;9.47;;
36243;SDS011;22284;49.956;19.816;2022-12-11T05:54:59;32.83;;;16.37;;
36243;SDS011;22284;49.956;19.816;2022-12-11T05:58:00;20.80;;;9.77;;
36243;SDS011;22284;49.956;19.816;2022-12-11T06:01:05;22.67;;;11.13;;
36243;SDS011;22284;49.956;19.816;2022-12-11T06:04:10;25.97;;;11.30;;
36243;SDS011;22284;49.956;19.816;2022-12-11T06:07:12;22.83;;;11.97;;
36243;SDS011;22284;49.956;19.816;2022-12-11T06:10:13;27.97;;;15.83;;
36243;SDS011;22284;49.956;19.816;2022-12-11T06:13:14;30.80;;;15.70;;
36243;SDS011;22284;49.956;19.816;2022-12-11T06:16:16;35.33;;;16.43;;
36243;SDS011;22284;49.956;19.816;2022-12-11T06:19:17;42.57;;;17.90;;
36243;SDS011;22284;49.956;19.816;2022-12-11T06:22:18;31.60;;;13.47;;
36243;SDS011;22284;49.956;19.816;2022-12-11T06:25:19;28.77;;;12.93;;
36243;SDS011;22284;49.956;19.816;2022-12-11T06:28:20;30.03;;;12.23;;
36243;SDS011;22284;49.956;19.816;2022-12-11T06:31:20;36.33;;;17.00;;
36243;SDS011;22284;49.956;19.816;2022-12-11T06:34:22;27.50;;;13.73;;
36243;SDS011;22284;49.956;19.816;2022-12-11T06:37:23;21.17;;;10.80;;
36243;SDS011;22284;49.956;19.816;2022-12-11T06:40:24;21.47;;;10.17;;
36243;SDS011;22284;49.956;19.816;2022-12-11T06:43:24;33.00;;;12.63;;
36243;SDS011;22284;49.956;19.816;2022-12-11T06:46:26;40.50;;;17.43;;
36243;SDS011;22284;49.956;19.816;2022-12-11T06:49:27;38.40;;;17.83;;
36243;SDS011;22284;49.956;19.816;2022-12-11T06:52:28;32.77;;;15.60;;
36243;SDS011;22284;49.956;19.816;2022-12-11T06:55:29;36.70;;;14.23;;
36243;SDS011;22284;49.956;19.816;2022-12-11T06:58:33;35.73;;;13.85;;
36243;SDS011;22284;49.956;19.816;2022-12-11T07:01:35;40.95;;;15.95;;
36243;SDS011;22284;49.956;19.816;2022-12-11T07:04:36;29.13;;;12.80;;
36243;SDS011;22284;49.956;19.816;2022-12-11T07:07:37;37.63;;;17.80;;
36243;SDS011;22284;49.956;19.816;2022-12-11T07:10:38;33.40;;;14.53;;
36243;SDS011;22284;49.956;19.816;2022-12-11T07:13:39;29.53;;;12.97;;
36243;SDS011;22284;49.956;19.816;2022-12-11T07:16:41;22.80;;;10.37;;
36243;SDS011;22284;49.956;19.816;2022-12-11T07:19:42;20.90;;;9.83;;
36243;SDS011;22284;49.956;19.816;2022-12-11T07:22:43;22.57;;;11.27;;
36243;SDS011;22284;49.956;19.816;2022-12-11T07:25:44;22.97;;;9.57;;
36243;SDS011;22284;49.956;19.816;2022-12-11T07:28:45;33.07;;;14.10;;
36243;SDS011;22284;49.956;19.816;2022-12-11T07:31:46;24.20;;;11.57;;
36243;SDS011;22284;49.956;19.816;2022-12-11T07:34:47;26.90;;;11.83;;
36243;SDS011;22284;49.956;19.816;2022-12-11T07:37:49;25.13;;;12.97;;
36243;SDS011;22284;49.956;19.816;2022-12-11T07:40:50;29.40;;;15.07;;
36243;SDS011;22284;49.956;19.816;2022-12-11T07:43:51;27.23;;;12.73;;
36243;SDS011;22284;49.956;19.816;2022-12-11T07:46:52;28.47;;;13.00;;
36243;SDS011;22284;49.956;19.816;2022-12-11T07:49:53;23.03;;;11.67;;
36243;SDS011;22284;49.956;19.816;2022-12-11T07:52:54;29.83;;;13.37;;
36243;SDS011;22284;49.956;19.816;2022-12-11T07:55:54;25.87;;;11.67;;
36243;SDS011;22284;49.956;19.816;2022-12-11T07:58:59;29.53;;;16.50;;
36243;SDS011;22284;49.956;19.816;2022-12-11T08:02:02;28.15;;;14.13;;
36243;SDS011;22284;49.956;19.816;2022-12-11T08:05:04;24.20;;;11.90;;
36243;SDS011;22284;49.956;19.816;2022-12-11T08:08:07;23.35;;;11.65;;
36243;SDS011;22284;49.956;19.816;2022-12-11T08:11:08;25.93;;;11.77;;
36243;SDS011;22284;49.956;19.816;2022-12-11T08:14:12;23.40;;;11.00;;
36243;SDS011;22284;49.956;19.816;2022-12-11T08:17:13;24.70;;;12.13;;
36243;SDS011;22284;49.956;19.816;2022-12-11T08:20:14;19.87;;;9.47;;
36243;SDS011;22284;49.956;19.816;2022-12-11T08:23:16;20.60;;;9.80;;
36243;SDS011;22284;49.956;19.816;2022-12-11T08:26:18;23.90;;;11.17;;
36243;SDS011;22284;49.956;19.816;2022-12-11T08:29:23;23.77;;;12.27;;
36243;SDS011;22284;49.956;19.816;2022-12-11T08:32:24;23.47;;;11.50;;
36243;SDS011;22284;49.956;19.816;2022-12-11T08:35:25;24.57;;;13.37;;
36243;SDS011;22284;49.956;19.816;2022-12-11T08:38:26;25.10;;;14.57;;
36243;SDS011;22284;49.956;19.816;2022-12-11T08:41:28;25.60;;;13.20;;
36243;SDS011;22284;49.956;19.816;2022-12-11T08:44:30;26.97;;;12.87;;
36243;SDS011;22284;49.956;19.816;2022-12-11T08:47:31;35.27;;;15.40;;
36243;SDS011;22284;49.956;19.816;2022-12-11T08:50:32;30.30;;;14.63;;
36243;SDS011;22284;49.956;19.816;2022-12-11T08:53:33;29.37;;;14.17;;
36243;SDS011;22284;49.956;19.816;2022-12-11T08:56:34;24.73;;;12.37;;
36243;SDS011;22284;49.956;19.816;2022-12-11T08:59:35;21.73;;;10.40;;
36243;SDS011;22284;49.956;19.816;2022-12-11T09:02:36;23.83;;;11.70;;
36243;SDS011;22284;49.956;19.816;2022-12-11T09:05:38;27.77;;;14.03;;
36243;SDS011;22284;49.956;19.816;2022-12-11T09:08:39;26.70;;;12.63;;
36243;SDS011;22284;49.956;19.816;2022-12-11T09:11:42;22.97;;;10.40;;
36243;SDS011;22284;49.956;19.816;2022-12-11T09:14:42;31.50;;;14.80;;
36243;SDS011;22284;49.956;19.816;2022-12-11T09:17:43;28.53;;;14.60;;
36243;SDS011;22284;49.956;19.816;2022-12-11T09:20:44;28.43;;;14.23;;
36243;SDS011;22284;49.956;19.816;2022-12-11T09:23:45;30.50;;;13.87;;
36243;SDS011;22284;49.956;19.816;2022-12-11T09:26:47;26.33;;;12.00;;
36243;SDS011;22284;49.956;19.816;2022-12-11T09:29:48;26.13;;;12.87;;
36243;SDS011;22284;49.956;19.816;2022-12-11T09:32:49;26.33;;;12.17;;
36243;SDS011;22284;49.956;19.816;2022-12-11T09:35:56;31.63;;;14.00;;
36243;SDS011;22284;49.956;19.816;2022-12-11T09:39:03;28.00;;;12.10;;
36243;SDS011;22284;49.956;19.816;2022-12-11T09:42:27;27.43;;;12.97;;
36243;SDS011;22284;49.956;19.816;2022-12-11T09:45:31;29.17;;;13.23;;
36243;SDS011;22284;49.956;19.816;2022-12-11T09:48:33;29.93;;;13.67;;
36243;SDS011;22284;49.956;19.816;2022-12-11T09:51:39;24.80;;;11.93;;
36243;SDS011;22284;49.956;19.816;2022-12-11T09:54:52;31.40;;;16.57;;
36243;SDS011;22284;49.956;19.816;2022-12-11T10:08:09;19.13;;;9.83;;
36243;SDS011;22284;49.956;19.816;2022-12-11T10:11:20;26.70;;;15.53;;
36243;SDS011;22284;49.956;19.816;2022-12-11T10:14:25;30.90;;;15.30;;
36243;SDS011;22284;49.956;19.816;2022-12-11T10:17:46;34.47;;;18.27;;
36243;SDS011;22284;49.956;19.816;2022-12-11T10:20:48;30.20;;;16.07;;
36243;SDS011;22284;49.956;19.816;2022-12-11T10:23:58;36.00;;;19.57;;
36243;SDS011;22284;49.956;19.816;2022-12-11T10:27:14;48.33;;;27.77;;
36243;SDS011;22284;49.956;19.816;2022-12-11T10:30:21;48.77;;;25.53;;
36243;SDS011;22284;49.956;19.816;2022-12-11T10:33:28;33.47;;;19.30;;
36243;SDS011;22284;49.956;19.816;2022-12-11T10:36:36;26.97;;;13.90;;
36243;SDS011;22284;49.956;19.816;2022-12-11T10:39:41;28.53;;;15.17;;
36243;SDS011;22284;49.956;19.816;2022-12-11T10:42:50;26.33;;;13.50;;
36243;SDS011;22284;49.956;19.816;2022-12-11T10:45:53;27.43;;;13.67;;
36243;SDS011;22284;49.956;19.816;2022-12-11T10:48:55;25.33;;;13.40;;
36243;SDS011;22284;49.956;19.816;2022-12-11T10:52:00;25.83;;;13.90;;
36243;SDS011;22284;49.956;19.816;2022-12-11T10:55:21;25.90;;;13.63;;
36243;SDS011;22284;49.956;19.816;2022-12-11T10:58:27;26.50;;;13.83;;
36243;SDS011;22284;49.956;19.816;2022-12-11T11:01:33;26.80;;;12.57;;
36243;SDS011;22284;49.956;19.816;2022-12-11T11:04:40;25.40;;;14.50;;
36243;SDS011;22284;49.956;19.816;2022-12-11T11:07:44;27.37;;;14.30;;
36243;SDS011;22284;49.956;19.816;2022-12-11T11:10:55;26.63;;;12.70;;
36243;SDS011;22284;49.956;19.816;2022-12-11T11:14:06;27.45;;;14.50;;
36243;SDS011;22284;49.956;19.816;2022-12-11T11:17:14;31.23;;;16.03;;
36243;SDS011;22284;49.956;19.816;2022-12-11T11:20:18;33.30;;;17.83;;
36243;SDS011;22284;49.956;19.816;2022-12-11T11:23:22;28.77;;;15.73;;
36243;SDS011;22284;49.956;19.816;2022-12-11T11:26:24;29.20;;;15.47;;
36243;SDS011;22284;49.956;19.816;2022-12-11T11:29:33;27.13;;;14.87;;
36243;SDS011;22284;49.956;19.816;2022-12-11T11:32:35;35.60;;;19.17;;
36243;SDS011;22284;49.956;19.816;2022-12-11T11:35:38;36.27;;;17.40;;
36243;SDS011;22284;49.956;19.816;2022-12-11T11:38:43;32.17;;;16.40;;
36243;SDS011;22284;49.956;19.816;2022-12-11T11:45:04;28.50;;;14.27;;
36243;SDS011;22284;49.956;19.816;2022-12-11T11:51:53;31.40;;;16.43;;
36243;SDS011;22284;49.956;19.816;2022-12-11T11:58:26;29.45;;;15.53;;
36243;SDS011;22284;49.956;19.816;2022-12-11T12:01:27;28.80;;;14.57;;
36243;SDS011;22284;49.956;19.816;2022-12-11T12:04:33;30.13;;;14.80;;
36243;SDS011;22284;49.956;19.816;2022-12-11T12:07:43;27.87;;;14.57;;
36243;SDS011;22284;49.956;19.816;2022-12-11T12:10:58;31.70;;;14.67;;
36243;SDS011;22284;49.956;19.816;2022-12-11T12:21:03;29.77;;;14.53;;
36243;SDS011;22284;49.956;19.816;2022-12-11T12:24:28;31.37;;;15.83;;
36243;SDS011;22284;49.956;19.816;2022-12-11T12:34:47;29.67;;;15.00;;
36243;SDS011;22284;49.956;19.816;2022-12-11T12:37:55;47.43;;;24.20;;
36243;SDS011;22284;49.956;19.816;2022-12-11T12:41:14;41.30;;;20.50;;
36243;SDS011;22284;49.956;19.816;2022-12-11T12:44:24;32.43;;;15.83;;
36243;SDS011;22284;49.956;19.816;2022-12-11T12:47:29;39.92;;;19.27;;
36243;SDS011;22284;49.956;19.816;2022-12-11T12:50:42;33.57;;;17.57;;
36243;SDS011;22284;49.956;19.816;2022-12-11T12:53:53;29.90;;;15.87;;
36243;SDS011;22284;49.956;19.816;2022-12-11T12:56:57;30.73;;;16.87;;
36243;SDS011;22284;49.956;19.816;2022-12-11T13:00:02;28.67;;;14.50;;
36243;SDS011;22284;49.956;19.816;2022-12-11T13:03:13;33.27;;;15.87;;
36243;SDS011;22284;49.956;19.816;2022-12-11T13:06:27;30.70;;;15.67;;
36243;SDS011;22284;49.956;19.816;2022-12-11T13:09:59;48.73;;;22.43;;
36243;SDS011;22284;49.956;19.816;2022-12-11T13:13:29;36.93;;;17.27;;
36243;SDS011;22284;49.956;19.816;2022-12-11T13:16:36;60.33;;;26.30;;
36243;SDS011;22284;49.956;19.816;2022-12-11T13:19:40;34.53;;;16.90;;
36243;SDS011;22284;49.956;19.816;2022-12-11T13:22:48;32.67;;;16.23;;
36243;SDS011;22284;49.956;19.816;2022-12-11T13:26:00;39.10;;;19.03;;
36243;SDS011;22284;49.956;19.816;2022-12-11T13:29:04;30.10;;;15.37;;
36243;SDS011;22284;49.956;19.816;2022-12-11T13:35:21;36.10;;;17.63;;
36243;SDS011;22284;49.956;19.816;2022-12-11T13:38:22;36.60;;;17.07;;
36243;SDS011;22284;49.956;19.816;2022-12-11T13:41:24;41.90;;;21.43;;
36243;SDS011;22284;49.956;19.816;2022-12-11T13:44:28;38.85;;;19.48;;
36243;SDS011;22284;49.956;19.816;2022-12-11T13:47:39;40.57;;;20.63;;
36243;SDS011;22284;49.956;19.816;2022-12-11T13:50:40;47.07;;;23.60;;
36243;SDS011;22284;49.956;19.816;2022-12-11T13:53:43;37.15;;;19.02;;
36243;SDS011;22284;49.956;19.816;2022-12-11T13:57:01;37.10;;;18.17;;
36243;SDS011;22284;49.956;19.816;2022-12-11T14:00:23;36.53;;;17.63;;
36243;SDS011;22284;49.956;19.816;2022-12-11T14:03:27;32.23;;;16.83;;
36243;SDS011;22284;49.956;19.816;2022-12-11T14:06:29;34.60;;;17.90;;
36243;SDS011;22284;49.956;19.816;2022-12-11T14:09:32;40.63;;;19.98;;
36243;SDS011;22284;49.956;19.816;2022-12-11T14:12:34;38.50;;;19.97;;
36243;SDS011;22284;49.956;19.816;2022-12-11T14:15:37;45.47;;;21.67;;
36243;SDS011;22284;49.956;19.816;2022-12-11T14:18:42;39.53;;;19.10;;
36243;SDS011;22284;49.956;19.816;2022-12-11T14:21:53;39.80;;;19.77;;
36243;SDS011;22284;49.956;19.816;2022-12-11T14:25:12;46.60;;;22.53;;
36243;SDS011;22284;49.956;19.816;2022-12-11T14:28:17;52.00;;;24.83;;
36243;SDS011;22284;49.956;19.816;2022-12-11T14:31:22;40.17;;;19.87;;
36243;SDS011;22284;49.956;19.816;2022-12-11T14:34:43;44.10;;;21.13;;
36243;SDS011;22284;49.956;19.816;2022-12-11T14:37:46;51.50;;;24.80;;
36243;SDS011;22284;49.956;19.816;2022-12-11T14:40:49;48.47;;;22.43;;
36243;SDS011;22284;49.956;19.816;2022-12-11T14:44:00;59.07;;;27.03;;
36243;SDS011;22284;49.956;19.816;2022-12-11T14:47:09;55.10;;;26.13;;
36243;SDS011;22284;49.956;19.816;2022-12-11T14:53:44;51.90;;;24.33;;
36243;SDS011;22284;49.956;19.816;2022-12-11T14:56:48;48.37;;;23.73;;
36243;SDS011;22284;49.956;19.816;2022-12-11T14:59:50;52.30;;;25.63;;
36243;SDS011;22284;49.956;19.816;2022-12-11T15:02:56;44.75;;;22.77;;
36243;SDS011;22284;49.956;19.816;2022-12-11T15:06:01;46.70;;;23.03;;
36243;SDS011;22284;49.956;19.816;2022-12-11T15:12:28;45.00;;;23.20;;
36243;SDS011;22284;49.956;19.816;2022-12-11T15:15:29;46.20;;;23.50;;
36243;SDS011;22284;49.956;19.816;2022-12-11T15:18:35;51.97;;;25.87;;
36243;SDS011;22284;49.956;19.816;2022-12-11T15:21:39;49.43;;;24.63;;
36243;SDS011;22284;49.956;19.816;2022-12-11T15:24:41;64.90;;;30.33;;
36243;SDS011;22284;49.956;19.816;2022-12-11T15:27:48;57.77;;;27.67;;
36243;SDS011;22284;49.956;19.816;2022-12-11T15:30:58;53.57;;;23.77;;
36243;SDS011;22284;49.956;19.816;2022-12-11T15:34:19;46.93;;;22.33;;
36243;SDS011;22284;49.956;19.816;2022-12-11T15:37:27;45.63;;;22.40;;
36243;SDS011;22284;49.956;19.816;2022-12-11T15:40:35;44.83;;;21.33;;
36243;SDS011;22284;49.956;19.816;2022-12-11T15:43:38;45.63;;;21.62;;
36243;SDS011;22284;49.956;19.816;2022-12-11T15:46:39;44.50;;;21.03;;
36243;SDS011;22284;49.956;19.816;2022-12-11T15:49:40;46.97;;;22.33;;
36243;SDS011;22284;49.956;19.816;2022-12-11T15:52:42;44.57;;;21.43;;
36243;SDS011;22284;49.956;19.816;2022-12-11T15:55:43;43.83;;;21.60;;
36243;SDS011;22284;49.956;19.816;2022-12-11T15:58:45;50.83;;;24.53;;
36243;SDS011;22284;49.956;19.816;2022-12-11T16:01:47;44.87;;;22.63;;
36243;SDS011;22284;49.956;19.816;2022-12-11T16:04:48;46.80;;;23.20;;
36243;SDS011;22284;49.956;19.816;2022-12-11T16:07:50;51.93;;;25.73;;
36243;SDS011;22284;49.956;19.816;2022-12-11T16:10:53;45.17;;;22.20;;
36243;SDS011;22284;49.956;19.816;2022-12-11T16:13:54;49.80;;;23.00;;
36243;SDS011;22284;49.956;19.816;2022-12-11T16:16:55;48.33;;;23.40;;
36243;SDS011;22284;49.956;19.816;2022-12-11T16:19:56;53.47;;;25.13;;
36243;SDS011;22284;49.956;19.816;2022-12-11T16:22:57;50.03;;;24.63;;
36243;SDS011;22284;49.956;19.816;2022-12-11T16:26:03;64.57;;;30.50;;
36243;SDS011;22284;49.956;19.816;2022-12-11T16:29:07;138.33;;;56.40;;
36243;SDS011;22284;49.956;19.816;2022-12-11T16:32:07;98.00;;;45.40;;
36243;SDS011;22284;49.956;19.816;2022-12-11T16:35:09;57.10;;;25.90;;
36243;SDS011;22284;49.956;19.816;2022-12-11T16:38:11;50.60;;;25.63;;
36243;SDS011;22284;49.956;19.816;2022-12-11T16:41:12;49.40;;;25.87;;
36243;SDS011;22284;49.956;19.816;2022-12-11T16:44:17;50.97;;;28.10;;
36243;SDS011;22284;49.956;19.816;2022-12-11T16:47:21;42.73;;;20.90;;
36243;SDS011;22284;49.956;19.816;2022-12-11T16:50:23;45.30;;;23.30;;
36243;SDS011;22284;49.956;19.816;2022-12-11T16:53:25;41.43;;;21.10;;
36243;SDS011;22284;49.956;19.816;2022-12-11T16:56:26;44.83;;;21.60;;
36243;SDS011;22284;49.956;19.816;2022-12-11T16:59:27;43.50;;;21.03;;
36243;SDS011;22284;49.956;19.816;2022-12-11T17:02:28;46.23;;;22.07;;
36243;SDS011;22284;49.956;19.816;2022-12-11T17:05:29;46.83;;;22.57;;
36243;SDS011;22284;49.956;19.816;2022-12-11T17:08:30;47.43;;;23.07;;
36243;SDS011;22284;49.956;19.816;2022-12-11T17:11:31;41.23;;;21.03;;
36243;SDS011;22284;49.956;19.816;2022-12-11T17:14:32;52.03;;;26.73;;
36243;SDS011;22284;49.956;19.816;2022-12-11T17:17:33;47.23;;;24.10;;
36243;SDS011;22284;49.956;19.816;2022-12-11T17:20:38;56.60;;;30.00;;
36243;SDS011;22284;49.956;19.816;2022-12-11T17:23:41;46.03;;;21.43;;
36243;SDS011;22284;49.956;19.816;2022-12-11T17:26:43;46.70;;;23.23;;
36243;SDS011;22284;49.956;19.816;2022-12-11T17:29:44;46.97;;;22.90;;
36243;SDS011;22284;49.956;19.816;2022-12-11T17:32:47;40.23;;;20.02;;
36243;SDS011;22284;49.956;19.816;2022-12-11T17:35:48;39.90;;;19.53;;
36243;SDS011;22284;49.956;19.816;2022-12-11T17:38:49;37.27;;;19.03;;
36243;SDS011;22284;49.956;19.816;2022-12-11T17:41:50;42.60;;;20.67;;
36243;SDS011;22284;49.956;19.816;2022-12-11T17:44:52;39.70;;;19.70;;
36243;SDS011;22284;49.956;19.816;2022-12-11T17:47:53;43.63;;;21.23;;
36243;SDS011;22284;49.956;19.816;2022-12-11T17:50:54;44.13;;;20.93;;
36243;SDS011;22284;49.956;19.816;2022-12-11T17:53:55;38.77;;;18.30;;
36243;SDS011;22284;49.956;19.816;2022-12-11T17:56:56;84.27;;;41.67;;
36243;SDS011;22284;49.956;19.816;2022-12-11T17:59:57;41.17;;;20.03;;
36243;SDS011;22284;49.956;19.816;2022-12-11T18:02:58;47.63;;;22.00;;
36243;SDS011;22284;49.956;19.816;2022-12-11T18:06:02;45.20;;;21.50;;
36243;SDS011;22284;49.956;19.816;2022-12-11T18:09:06;53.20;;;28.27;;
36243;SDS011;22284;49.956;19.816;2022-12-11T18:12:08;48.33;;;24.63;;
36243;SDS011;22284;49.956;19.816;2022-12-11T18:15:10;42.63;;;20.47;;
36243;SDS011;22284;49.956;19.816;2022-12-11T18:18:11;44.97;;;22.67;;
36243;SDS011;22284;49.956;19.816;2022-12-11T18:21:17;47.20;;;23.60;;
36243;SDS011;22284;49.956;19.816;2022-12-11T18:24:21;50.93;;;23.77;;
36243;SDS011;22284;49.956;19.816;2022-12-11T18:30:25;52.43;;;24.67;;
36243;SDS011;22284;49.956;19.816;2022-12-11T18:33:28;50.27;;;23.47;;
36243;SDS011;22284;49.956;19.816;2022-12-11T18:36:30;54.88;;;26.15;;
36243;SDS011;22284;49.956;19.816;2022-12-11T18:39:33;51.63;;;23.67;;
36243;SDS011;22284;49.956;19.816;2022-12-11T18:42:34;43.97;;;22.03;;